createdAt,value
2019-04-04T00:02:14.532Z,85.73
2019-04-04T00:07:19.876Z,86.20
2019-04-04T00:12:25.147Z,86.21
2019-04-04T00:17:30.433Z,86.44
2019-04-04T00:22:35.917Z,86.31
2019-04-04T00:27:43.684Z,86.75
2019-04-04T00:32:48.195Z,86.63
2019-04-04T00:37:53.454Z,86.17
2019-04-04T00:42:58.739Z,85.30
2019-04-04T00:48:06.486Z,84.67
2019-04-04T00:53:12.313Z,84.63
2019-04-04T00:58:18.931Z,84.46
2019-04-04T01:03:25.663Z,86.06
2019-04-04T01:08:31.034Z,85.08
2019-04-04T01:13:36.488Z,85.80
2019-04-04T01:18:41.795Z,86.83
2019-04-04T01:23:47.109Z,85.79
2019-04-04T01:28:52.545Z,86.60
2019-04-04T01:33:57.826Z,86.24
2019-04-04T01:39:05.092Z,85.71
2019-04-04T01:44:11.269Z,84.66
2019-04-04T01:49:19.087Z,85.11
2019-04-04T01:54:24.294Z,85.74
2019-04-04T01:59:29.840Z,86.56
2019-04-04T02:04:35.178Z,87.35
2019-04-04T02:09:43.282Z,86.90
2019-04-04T02:14:47.866Z,87.69
2019-04-04T02:19:55.582Z,87.41
2019-04-04T02:25:02.814Z,87.61
2019-04-04T02:30:08.282Z,86.49
2019-04-04T02:35:13.662Z,87.27
2019-04-04T02:40:19.485Z,86.91
2019-04-04T02:45:24.900Z,86.76
2019-04-04T02:50:34.351Z,87.62
2019-04-04T02:55:37.854Z,86.52
2019-04-04T03:00:43.832Z,85.99
2019-04-04T03:05:51.967Z,86.03
2019-04-04T03:10:56.042Z,86.42
2019-04-04T03:16:01.391Z,86.15
2019-04-04T03:21:06.877Z,86.54
2019-04-04T03:26:12.135Z,87.25
2019-04-04T03:31:17.572Z,87.37
2019-04-04T03:36:22.856Z,85.56
2019-04-04T03:41:30.641Z,85.26
2019-04-04T03:46:38.834Z,86.34
2019-04-04T03:51:42.549Z,86.15
2019-04-04T03:56:47.803Z,86.69
2019-04-04T04:01:53.559Z,87.40
2019-04-04T04:06:58.838Z,87.08
2019-04-04T04:12:04.465Z,86.52
2019-04-04T04:17:11.644Z,86.25
2019-04-04T04:22:19.224Z,85.93
2019-04-04T04:27:25.046Z,85.77
2019-04-04T04:32:30.733Z,85.61
2019-04-04T04:37:36.001Z,85.71
2019-04-04T04:42:41.258Z,86.76
2019-04-04T04:47:46.578Z,86.00
2019-04-04T04:52:52.025Z,87.26
2019-04-04T04:57:57.269Z,87.07
2019-04-04T05:03:03.374Z,87.36
2019-04-04T05:08:10.122Z,86.62
2019-04-04T05:13:15.889Z,87.06
2019-04-04T05:18:21.563Z,86.22
2019-04-04T05:23:26.867Z,86.17
2019-04-04T05:28:32.087Z,85.11
2019-04-04T05:33:37.399Z,85.64
2019-04-04T05:38:43.907Z,86.16
2019-04-04T05:43:50.222Z,87.00
2019-04-04T05:48:59.375Z,87.10
2019-04-04T05:54:07.141Z,86.33
2019-04-04T05:59:11.164Z,87.77
2019-04-04T06:04:17.259Z,87.27
2019-04-04T06:09:23.651Z,85.78
2019-04-04T06:14:29.999Z,85.45
2019-04-04T06:19:36.031Z,84.62
2019-04-04T06:24:41.479Z,85.21
2019-04-04T06:29:47.912Z,85.48
2019-04-04T06:34:56.541Z,85.41
2019-04-04T06:40:01.022Z,85.59
2019-04-04T06:45:07.231Z,85.75
2019-04-04T06:50:12.859Z,84.96
2019-04-04T06:55:18.514Z,86.62
2019-04-04T07:00:23.847Z,85.16
2019-04-04T07:05:29.824Z,84.79
2019-04-04T07:10:35.234Z,82.08
2019-04-04T07:15:46.613Z,82.14
2019-04-04T07:20:48.394Z,80.25
2019-04-04T07:25:54.261Z,79.90
2019-04-04T07:31:01.758Z,79.20
2019-04-04T07:36:07.302Z,79.53
2019-04-04T07:41:14.796Z,79.71
2019-04-04T07:46:19.958Z,79.32
2019-04-04T07:51:25.189Z,79.68
2019-04-04T07:56:35.737Z,80.14
2019-04-04T08:01:50.843Z,80.39
2019-04-04T08:06:51.392Z,79.49
2019-04-04T08:11:56.743Z,79.44
2019-04-04T08:17:02.619Z,79.04
2019-04-04T08:22:08.166Z,78.78
2019-04-04T08:27:19.246Z,79.58
2019-04-04T08:32:30.139Z,79.38
2019-04-04T08:37:36.120Z,80.14
2019-04-04T08:42:41.442Z,79.86
2019-04-04T08:47:46.807Z,80.61
2019-04-04T08:52:52.048Z,80.41
2019-04-04T08:57:57.336Z,81.43
2019-04-04T09:03:02.690Z,79.71
2019-04-04T09:08:08.283Z,80.32
2019-04-04T09:13:13.663Z,80.74
2019-04-04T09:18:18.914Z,80.81
2019-04-04T09:23:24.417Z,80.41
2019-04-04T09:28:29.988Z,80.94
2019-04-04T09:33:35.606Z,80.03
2019-04-04T09:38:41.003Z,80.51
2019-04-04T09:43:46.357Z,80.57
2019-04-04T09:48:51.776Z,80.29
2019-04-04T09:53:57.451Z,80.97
2019-04-04T09:59:03.076Z,80.94
2019-04-04T10:04:08.746Z,80.45
2019-04-04T10:09:16.111Z,80.81
2019-04-04T10:14:21.184Z,80.24
2019-04-04T10:19:26.471Z,80.42
2019-04-04T10:24:31.762Z,80.02
2019-04-04T10:29:37.035Z,79.98
2019-04-04T10:34:42.501Z,80.22
2019-04-04T10:39:48.606Z,79.36
2019-04-04T10:44:54.556Z,79.73
2019-04-04T10:50:00.132Z,80.01
2019-04-04T10:55:07.800Z,80.25
2019-04-04T11:00:13.636Z,80.26
2019-04-04T11:05:19.384Z,79.61
2019-04-04T11:10:24.715Z,80.28
2019-04-04T11:15:30.067Z,79.84
2019-04-04T11:20:35.403Z,80.08
2019-04-04T11:25:40.638Z,80.56
2019-04-04T11:30:45.848Z,80.87
2019-04-04T11:35:51.111Z,81.05
2019-04-04T11:40:56.460Z,79.73
2019-04-04T11:46:06.249Z,81.11
2019-04-04T11:51:12.454Z,79.62
2019-04-04T11:56:17.668Z,79.85
2019-04-04T12:01:23.712Z,79.59
2019-04-04T12:06:29.005Z,79.40
2019-04-04T12:11:34.278Z,79.87
2019-04-04T12:16:39.585Z,78.11
2019-04-04T12:21:44.935Z,78.42
2019-04-04T12:26:50.174Z,78.41
2019-04-04T12:31:55.573Z,78.40
2019-04-04T12:37:01.187Z,78.51
2019-04-04T12:42:06.557Z,78.81
2019-04-04T12:47:11.858Z,78.52
2019-04-04T12:52:17.199Z,78.49
2019-04-04T12:57:23.079Z,78.81
2019-04-04T13:02:28.395Z,78.56
2019-04-04T13:07:34.099Z,79.58
2019-04-04T13:12:39.547Z,79.42
2019-04-04T13:17:45.261Z,79.46
2019-04-04T13:22:50.546Z,79.88
2019-04-04T13:27:55.991Z,80.04
2019-04-04T13:33:01.239Z,80.44
2019-04-04T13:38:07.757Z,80.48
2019-04-04T13:43:13.082Z,80.50
2019-04-04T13:48:18.362Z,80.87
2019-04-04T13:53:25.557Z,81.07
2019-04-04T13:58:30.860Z,81.14
2019-04-04T14:03:36.448Z,81.43
2019-04-04T14:08:41.873Z,81.61
2019-04-04T14:13:49.457Z,81.07
2019-04-04T14:18:55.679Z,81.08
2019-04-04T14:24:12.312Z,81.21
2019-04-04T14:29:09.819Z,81.80
2019-04-04T14:34:18.030Z,81.77
2019-04-04T14:39:25.858Z,81.68
2019-04-04T14:44:36.102Z,81.47
2019-04-04T14:49:45.911Z,81.71
2019-04-04T14:54:50.848Z,81.18
2019-04-04T14:59:56.212Z,81.42
2019-04-04T15:05:01.588Z,81.27
2019-04-04T15:10:07.527Z,81.35
2019-04-04T15:15:13.442Z,81.04
2019-04-04T15:20:19.626Z,81.35
2019-04-04T15:25:25.533Z,80.87
2019-04-04T15:30:31.175Z,80.73
2019-04-04T15:35:36.455Z,80.26
2019-04-04T15:40:42.070Z,79.49
2019-04-04T15:45:47.360Z,79.37
2019-04-04T15:50:53.346Z,78.05
2019-04-04T15:55:58.873Z,78.64
2019-04-04T16:01:04.299Z,78.60
2019-04-04T16:06:10.035Z,76.56
2019-04-04T16:11:15.785Z,76.21
2019-04-04T16:16:21.475Z,75.85
2019-04-04T16:21:27.348Z,74.86
2019-04-04T16:26:32.926Z,75.02
2019-04-04T16:31:38.629Z,76.07
2019-04-04T16:36:44.234Z,76.88
2019-04-04T16:42:01.502Z,76.60
2019-04-04T16:46:57.732Z,76.81
2019-04-04T16:52:07.353Z,77.10
2019-04-04T16:57:13.388Z,77.67
2019-04-04T17:02:18.755Z,78.48
2019-04-04T17:07:24.214Z,79.12
2019-04-04T17:12:29.732Z,78.33
2019-04-04T17:17:35.140Z,79.00
2019-04-04T17:22:40.523Z,78.94
2019-04-04T17:27:45.759Z,79.45
2019-04-04T17:32:51.911Z,78.96
2019-04-04T17:37:57.735Z,79.61
2019-04-04T17:43:03.719Z,79.47
2019-04-04T17:48:09.601Z,80.39
2019-04-04T17:53:15.524Z,81.25
2019-04-04T17:58:21.928Z,81.26
2019-04-04T18:03:27.716Z,81.70
2019-04-04T18:08:33.039Z,82.11
2019-04-04T18:13:38.361Z,82.25
2019-04-04T18:18:43.759Z,82.34
2019-04-04T18:23:49.207Z,82.43
2019-04-04T18:28:54.501Z,82.19
2019-04-04T18:33:59.866Z,82.50
2019-04-04T18:39:07.708Z,82.61
2019-04-04T18:44:13.418Z,82.93
2019-04-04T18:49:18.665Z,82.90
2019-04-04T18:54:24.361Z,82.98
2019-04-04T18:59:29.607Z,82.81
2019-04-04T19:04:34.846Z,82.67
2019-04-04T19:09:40.237Z,82.66
2019-04-04T19:14:45.498Z,82.95
2019-04-04T19:19:51.569Z,83.19
2019-04-04T19:24:57.025Z,83.15
2019-04-04T19:30:02.420Z,83.72
2019-04-04T19:35:08.641Z,83.84
2019-04-04T19:40:14.947Z,83.54
2019-04-04T19:45:21.394Z,83.46
2019-04-04T19:50:28.043Z,83.33
2019-04-04T19:55:33.560Z,83.56
2019-04-04T20:00:38.806Z,83.68
2019-04-04T20:05:44.565Z,84.00
2019-04-04T20:10:50.408Z,84.25
2019-04-04T20:16:00.274Z,83.62
2019-04-04T20:21:05.603Z,83.72
2019-04-04T20:26:11.325Z,84.07
2019-04-04T20:31:16.757Z,84.11
2019-04-04T20:36:22.215Z,84.17
2019-04-04T20:41:27.674Z,84.04
2019-04-04T20:46:32.986Z,83.89
2019-04-04T20:51:40.705Z,83.95
2019-04-04T20:56:45.983Z,83.93
2019-04-04T21:01:51.566Z,84.55
2019-04-04T21:06:57.535Z,85.05
2019-04-04T21:12:03.224Z,86.02
2019-04-04T21:17:09.054Z,86.10
2019-04-04T21:22:26.627Z,86.99
2019-04-04T21:27:21.322Z,85.71
2019-04-04T21:32:26.537Z,85.63
2019-04-04T21:37:32.967Z,85.22
2019-04-04T21:42:38.338Z,84.90
2019-04-04T21:47:44.083Z,84.97
2019-04-04T21:52:49.337Z,84.69
2019-04-04T21:57:54.679Z,84.58
2019-04-04T22:02:59.978Z,85.16
2019-04-04T22:08:05.510Z,85.34
2019-04-04T22:13:10.992Z,85.38
2019-04-04T22:18:16.248Z,85.90
2019-04-04T22:23:23.030Z,86.59
2019-04-04T22:28:28.262Z,87.71
2019-04-04T22:33:33.558Z,86.48
2019-04-04T22:38:39.141Z,85.70
2019-04-04T22:43:44.569Z,85.93
2019-04-04T22:48:49.822Z,86.54
2019-04-04T22:53:55.054Z,87.37
2019-04-04T22:59:00.463Z,86.96
2019-04-04T23:04:05.885Z,86.69
2019-04-04T23:09:11.146Z,85.83
2019-04-04T23:14:16.966Z,86.81
2019-04-04T23:19:22.369Z,86.32
2019-04-04T23:24:27.704Z,86.52
2019-04-04T23:29:33.188Z,86.54
2019-04-04T23:34:38.867Z,86.24
2019-04-04T23:39:44.107Z,86.97
2019-04-04T23:45:00.313Z,87.18
2019-04-04T23:49:57.018Z,85.59
2019-04-04T23:55:02.376Z,85.44
